sensor_id;sensor_type;location;lat;lon;timestamp;P1;durP1;ratioP1;P2;durP2;ratioP2
60060;SDS011;45933;51.336;12.612;2024-03-07T00:00:10;50.60;;;25.73;;
60060;SDS011;45933;51.336;12.612;2024-03-07T00:02:49;46.53;;;25.20;;
60060;SDS011;45933;51.336;12.612;2024-03-07T00:05:18;49.97;;;25.43;;
60060;SDS011;45933;51.336;12.612;2024-03-07T00:07:44;50.30;;;26.13;;
60060;SDS011;45933;51.336;12.612;2024-03-07T00:10:10;46.27;;;24.60;;
60060;SDS011;45933;51.336;12.612;2024-03-07T00:12:36;52.57;;;26.07;;
60060;SDS011;45933;51.336;12.612;2024-03-07T00:15:05;47.17;;;24.83;;
60060;SDS011;45933;51.336;12.612;2024-03-07T00:17:35;50.13;;;25.63;;
60060;SDS011;45933;51.336;12.612;2024-03-07T00:20:01;46.73;;;24.47;;
60060;SDS011;45933;51.336;12.612;2024-03-07T00:22:29;54.97;;;26.00;;
60060;SDS011;45933;51.336;12.612;2024-03-07T00:24:55;45.33;;;24.50;;
60060;SDS011;45933;51.336;12.612;2024-03-07T00:27:20;47.30;;;24.43;;
60060;SDS011;45933;51.336;12.612;2024-03-07T00:29:46;45.30;;;24.80;;
60060;SDS011;45933;51.336;12.612;2024-03-07T00:32:17;47.13;;;24.57;;
60060;SDS011;45933;51.336;12.612;2024-03-07T00:34:46;50.97;;;25.60;;
60060;SDS011;45933;51.336;12.612;2024-03-07T00:37:12;51.73;;;26.33;;
60060;SDS011;45933;51.336;12.612;2024-03-07T00:39:37;50.53;;;24.23;;
60060;SDS011;45933;51.336;12.612;2024-03-07T00:42:03;50.83;;;25.50;;
60060;SDS011;45933;51.336;12.612;2024-03-07T00:44:28;47.63;;;24.80;;
60060;SDS011;45933;51.336;12.612;2024-03-07T00:46:53;52.13;;;26.00;;
60060;SDS011;45933;51.336;12.612;2024-03-07T00:49:19;52.80;;;26.03;;
60060;SDS011;45933;51.336;12.612;2024-03-07T00:51:45;53.63;;;25.93;;
60060;SDS011;45933;51.336;12.612;2024-03-07T00:54:10;52.67;;;25.90;;
60060;SDS011;45933;51.336;12.612;2024-03-07T00:56:37;54.93;;;27.27;;
60060;SDS011;45933;51.336;12.612;2024-03-07T00:59:03;52.80;;;26.87;;
60060;SDS011;45933;51.336;12.612;2024-03-07T01:01:28;55.83;;;28.00;;
60060;SDS011;45933;51.336;12.612;2024-03-07T01:03:54;59.77;;;27.77;;
60060;SDS011;45933;51.336;12.612;2024-03-07T01:06:19;57.97;;;27.37;;
60060;SDS011;45933;51.336;12.612;2024-03-07T01:08:45;53.73;;;26.93;;
60060;SDS011;45933;51.336;12.612;2024-03-07T01:11:10;55.27;;;27.20;;
60060;SDS011;45933;51.336;12.612;2024-03-07T01:13:37;58.40;;;29.53;;
60060;SDS011;45933;51.336;12.612;2024-03-07T01:16:06;64.00;;;29.60;;
60060;SDS011;45933;51.336;12.612;2024-03-07T01:18:32;60.27;;;29.13;;
60060;SDS011;45933;51.336;12.612;2024-03-07T01:20:58;62.03;;;29.77;;
60060;SDS011;45933;51.336;12.612;2024-03-07T01:23:24;61.33;;;29.77;;
60060;SDS011;45933;51.336;12.612;2024-03-07T01:25:49;56.33;;;29.43;;
60060;SDS011;45933;51.336;12.612;2024-03-07T01:28:15;62.47;;;29.00;;
60060;SDS011;45933;51.336;12.612;2024-03-07T01:30:42;67.17;;;30.73;;
60060;SDS011;45933;51.336;12.612;2024-03-07T01:33:07;65.70;;;31.07;;
60060;SDS011;45933;51.336;12.612;2024-03-07T01:35:32;63.10;;;31.40;;
60060;SDS011;45933;51.336;12.612;2024-03-07T01:37:58;66.43;;;32.37;;
60060;SDS011;45933;51.336;12.612;2024-03-07T01:40:23;60.20;;;30.73;;
60060;SDS011;45933;51.336;12.612;2024-03-07T01:42:49;60.47;;;30.83;;
60060;SDS011;45933;51.336;12.612;2024-03-07T01:45:15;62.80;;;31.97;;
60060;SDS011;45933;51.336;12.612;2024-03-07T01:47:40;72.30;;;33.50;;
60060;SDS011;45933;51.336;12.612;2024-03-07T01:50:06;69.70;;;33.33;;
60060;SDS011;45933;51.336;12.612;2024-03-07T01:52:32;65.87;;;31.70;;
60060;SDS011;45933;51.336;12.612;2024-03-07T01:54:58;69.37;;;34.33;;
60060;SDS011;45933;51.336;12.612;2024-03-07T01:57:23;69.17;;;33.47;;
60060;SDS011;45933;51.336;12.612;2024-03-07T01:59:49;72.47;;;34.93;;
60060;SDS011;45933;51.336;12.612;2024-03-07T02:02:15;70.10;;;34.83;;
60060;SDS011;45933;51.336;12.612;2024-03-07T02:04:42;75.03;;;35.33;;
60060;SDS011;45933;51.336;12.612;2024-03-07T02:07:08;67.00;;;34.90;;
60060;SDS011;45933;51.336;12.612;2024-03-07T02:09:36;69.83;;;34.47;;
60060;SDS011;45933;51.336;12.612;2024-03-07T02:12:02;70.37;;;35.60;;
60060;SDS011;45933;51.336;12.612;2024-03-07T02:14:27;74.57;;;36.07;;
60060;SDS011;45933;51.336;12.612;2024-03-07T02:16:53;68.83;;;34.63;;
60060;SDS011;45933;51.336;12.612;2024-03-07T02:19:21;69.87;;;34.00;;
60060;SDS011;45933;51.336;12.612;2024-03-07T02:21:46;68.43;;;35.33;;
60060;SDS011;45933;51.336;12.612;2024-03-07T02:24:12;68.47;;;34.63;;
60060;SDS011;45933;51.336;12.612;2024-03-07T02:26:37;74.47;;;36.90;;
60060;SDS011;45933;51.336;12.612;2024-03-07T02:29:04;72.57;;;34.67;;
60060;SDS011;45933;51.336;12.612;2024-03-07T02:31:30;70.87;;;36.03;;
60060;SDS011;45933;51.336;12.612;2024-03-07T02:34:02;66.90;;;35.90;;
60060;SDS011;45933;51.336;12.612;2024-03-07T02:36:30;67.53;;;34.27;;
60060;SDS011;45933;51.336;12.612;2024-03-07T02:38:55;65.63;;;34.73;;
60060;SDS011;45933;51.336;12.612;2024-03-07T02:41:21;67.60;;;35.53;;
60060;SDS011;45933;51.336;12.612;2024-03-07T02:43:46;66.50;;;34.60;;
60060;SDS011;45933;51.336;12.612;2024-03-07T02:46:11;64.13;;;34.40;;
60060;SDS011;45933;51.336;12.612;2024-03-07T02:48:37;70.77;;;34.40;;
60060;SDS011;45933;51.336;12.612;2024-03-07T02:51:03;67.93;;;33.93;;
60060;SDS011;45933;51.336;12.612;2024-03-07T02:53:30;57.97;;;33.23;;
60060;SDS011;45933;51.336;12.612;2024-03-07T02:55:56;64.03;;;34.40;;
60060;SDS011;45933;51.336;12.612;2024-03-07T02:58:21;61.40;;;33.07;;
60060;SDS011;45933;51.336;12.612;2024-03-07T03:00:46;57.40;;;30.97;;
60060;SDS011;45933;51.336;12.612;2024-03-07T03:03:14;67.50;;;34.10;;
60060;SDS011;45933;51.336;12.612;2024-03-07T03:05:39;67.47;;;32.83;;
60060;SDS011;45933;51.336;12.612;2024-03-07T03:08:04;69.60;;;34.60;;
60060;SDS011;45933;51.336;12.612;2024-03-07T03:10:32;66.37;;;34.63;;
60060;SDS011;45933;51.336;12.612;2024-03-07T03:12:58;73.23;;;35.87;;
60060;SDS011;45933;51.336;12.612;2024-03-07T03:15:24;75.43;;;36.13;;
60060;SDS011;45933;51.336;12.612;2024-03-07T03:17:49;76.50;;;36.27;;
60060;SDS011;45933;51.336;12.612;2024-03-07T03:20:15;75.90;;;35.77;;
60060;SDS011;45933;51.336;12.612;2024-03-07T03:22:49;70.37;;;35.67;;
60060;SDS011;45933;51.336;12.612;2024-03-07T03:25:18;69.70;;;33.90;;
60060;SDS011;45933;51.336;12.612;2024-03-07T03:27:45;67.50;;;32.50;;
60060;SDS011;45933;51.336;12.612;2024-03-07T03:30:11;67.53;;;33.80;;
60060;SDS011;45933;51.336;12.612;2024-03-07T03:32:39;61.07;;;31.23;;
60060;SDS011;45933;51.336;12.612;2024-03-07T03:35:05;64.80;;;32.27;;
60060;SDS011;45933;51.336;12.612;2024-03-07T03:37:31;67.33;;;30.90;;
60060;SDS011;45933;51.336;12.612;2024-03-07T03:39:57;66.30;;;31.23;;
60060;SDS011;45933;51.336;12.612;2024-03-07T03:42:22;66.10;;;31.17;;
60060;SDS011;45933;51.336;12.612;2024-03-07T03:44:47;55.13;;;28.53;;
60060;SDS011;45933;51.336;12.612;2024-03-07T03:47:12;57.20;;;30.77;;
60060;SDS011;45933;51.336;12.612;2024-03-07T03:49:38;62.17;;;29.77;;
60060;SDS011;45933;51.336;12.612;2024-03-07T03:52:04;57.07;;;29.33;;
60060;SDS011;45933;51.336;12.612;2024-03-07T03:54:29;53.07;;;27.60;;
60060;SDS011;45933;51.336;12.612;2024-03-07T03:56:54;59.00;;;28.60;;
60060;SDS011;45933;51.336;12.612;2024-03-07T03:59:20;55.10;;;28.10;;
60060;SDS011;45933;51.336;12.612;2024-03-07T04:01:45;50.10;;;27.03;;
60060;SDS011;45933;51.336;12.612;2024-03-07T04:04:10;52.80;;;27.13;;
60060;SDS011;45933;51.336;12.612;2024-03-07T04:06:36;49.07;;;25.83;;
60060;SDS011;45933;51.336;12.612;2024-03-07T04:09:01;49.53;;;26.27;;
60060;SDS011;45933;51.336;12.612;2024-03-07T04:11:26;45.47;;;26.60;;
60060;SDS011;45933;51.336;12.612;2024-03-07T04:13:51;47.30;;;25.63;;
60060;SDS011;45933;51.336;12.612;2024-03-07T04:16:17;42.00;;;23.80;;
60060;SDS011;45933;51.336;12.612;2024-03-07T04:18:42;43.30;;;25.23;;
60060;SDS011;45933;51.336;12.612;2024-03-07T04:21:07;43.67;;;25.43;;
60060;SDS011;45933;51.336;12.612;2024-03-07T04:23:34;45.33;;;25.33;;
60060;SDS011;45933;51.336;12.612;2024-03-07T04:25:59;43.47;;;24.87;;
60060;SDS011;45933;51.336;12.612;2024-03-07T04:28:25;45.27;;;25.50;;
60060;SDS011;45933;51.336;12.612;2024-03-07T04:30:50;44.03;;;24.93;;
60060;SDS011;45933;51.336;12.612;2024-03-07T04:33:18;46.20;;;24.70;;
60060;SDS011;45933;51.336;12.612;2024-03-07T04:35:44;43.30;;;24.80;;
60060;SDS011;45933;51.336;12.612;2024-03-07T04:38:10;44.10;;;24.93;;
60060;SDS011;45933;51.336;12.612;2024-03-07T04:40:39;41.10;;;24.50;;
60060;SDS011;45933;51.336;12.612;2024-03-07T04:43:05;42.13;;;23.90;;
60060;SDS011;45933;51.336;12.612;2024-03-07T04:45:30;41.13;;;24.50;;
60060;SDS011;45933;51.336;12.612;2024-03-07T04:47:56;40.53;;;24.10;;
60060;SDS011;45933;51.336;12.612;2024-03-07T04:50:21;44.90;;;25.20;;
60060;SDS011;45933;51.336;12.612;2024-03-07T04:52:46;45.13;;;26.03;;
60060;SDS011;45933;51.336;12.612;2024-03-07T04:55:12;45.20;;;26.13;;
60060;SDS011;45933;51.336;12.612;2024-03-07T04:57:38;41.43;;;25.70;;
60060;SDS011;45933;51.336;12.612;2024-03-07T05:00:08;45.57;;;26.93;;
60060;SDS011;45933;51.336;12.612;2024-03-07T05:02:40;45.27;;;26.40;;
60060;SDS011;45933;51.336;12.612;2024-03-07T05:05:07;43.07;;;27.10;;
60060;SDS011;45933;51.336;12.612;2024-03-07T05:07:32;43.57;;;28.23;;
60060;SDS011;45933;51.336;12.612;2024-03-07T05:09:58;44.20;;;27.43;;
60060;SDS011;45933;51.336;12.612;2024-03-07T05:12:23;44.53;;;27.33;;
60060;SDS011;45933;51.336;12.612;2024-03-07T05:14:48;41.00;;;25.70;;
60060;SDS011;45933;51.336;12.612;2024-03-07T05:17:13;42.50;;;26.60;;
60060;SDS011;45933;51.336;12.612;2024-03-07T05:19:39;41.30;;;26.20;;
60060;SDS011;45933;51.336;12.612;2024-03-07T05:22:04;43.73;;;26.37;;
60060;SDS011;45933;51.336;12.612;2024-03-07T05:24:30;43.10;;;28.00;;
60060;SDS011;45933;51.336;12.612;2024-03-07T05:26:57;45.07;;;27.37;;
60060;SDS011;45933;51.336;12.612;2024-03-07T05:29:23;40.03;;;26.37;;
60060;SDS011;45933;51.336;12.612;2024-03-07T05:31:48;41.87;;;26.13;;
60060;SDS011;45933;51.336;12.612;2024-03-07T05:34:14;39.03;;;24.97;;
60060;SDS011;45933;51.336;12.612;2024-03-07T05:36:48;49.23;;;27.80;;
60060;SDS011;45933;51.336;12.612;2024-03-07T05:39:14;40.87;;;26.47;;
60060;SDS011;45933;51.336;12.612;2024-03-07T05:41:41;41.23;;;25.13;;
60060;SDS011;45933;51.336;12.612;2024-03-07T05:44:07;39.97;;;25.07;;
60060;SDS011;45933;51.336;12.612;2024-03-07T05:46:36;40.97;;;25.47;;
60060;SDS011;45933;51.336;12.612;2024-03-07T05:49:15;41.67;;;25.33;;
60060;SDS011;45933;51.336;12.612;2024-03-07T05:51:45;41.67;;;26.03;;
60060;SDS011;45933;51.336;12.612;2024-03-07T05:54:10;38.90;;;25.30;;
60060;SDS011;45933;51.336;12.612;2024-03-07T05:56:37;42.30;;;26.90;;
60060;SDS011;45933;51.336;12.612;2024-03-07T05:59:04;44.17;;;28.03;;
60060;SDS011;45933;51.336;12.612;2024-03-07T06:01:32;45.20;;;27.73;;
60060;SDS011;45933;51.336;12.612;2024-03-07T06:03:58;44.50;;;26.67;;
60060;SDS011;45933;51.336;12.612;2024-03-07T06:06:24;42.67;;;27.23;;
60060;SDS011;45933;51.336;12.612;2024-03-07T06:08:49;40.10;;;26.40;;
60060;SDS011;45933;51.336;12.612;2024-03-07T06:11:15;42.00;;;26.03;;
60060;SDS011;45933;51.336;12.612;2024-03-07T06:13:45;42.63;;;25.40;;
60060;SDS011;45933;51.336;12.612;2024-03-07T06:16:11;39.77;;;26.43;;
60060;SDS011;45933;51.336;12.612;2024-03-07T06:18:36;39.60;;;26.53;;
60060;SDS011;45933;51.336;12.612;2024-03-07T06:21:01;43.47;;;26.73;;
60060;SDS011;45933;51.336;12.612;2024-03-07T06:23:29;42.90;;;26.57;;
60060;SDS011;45933;51.336;12.612;2024-03-07T06:25:55;42.50;;;26.50;;
60060;SDS011;45933;51.336;12.612;2024-03-07T06:28:23;43.33;;;26.77;;
60060;SDS011;45933;51.336;12.612;2024-03-07T06:30:49;38.53;;;25.40;;
60060;SDS011;45933;51.336;12.612;2024-03-07T06:33:14;39.43;;;25.27;;
60060;SDS011;45933;51.336;12.612;2024-03-07T06:35:41;39.47;;;26.20;;
60060;SDS011;45933;51.336;12.612;2024-03-07T06:38:07;47.47;;;27.20;;
60060;SDS011;45933;51.336;12.612;2024-03-07T06:40:38;42.57;;;26.63;;
60060;SDS011;45933;51.336;12.612;2024-03-07T06:43:07;43.33;;;27.10;;
60060;SDS011;45933;51.336;12.612;2024-03-07T06:45:35;42.67;;;25.23;;
60060;SDS011;45933;51.336;12.612;2024-03-07T06:48:01;40.10;;;26.63;;
60060;SDS011;45933;51.336;12.612;2024-03-07T06:50:32;39.70;;;25.23;;
60060;SDS011;45933;51.336;12.612;2024-03-07T06:52:57;37.97;;;24.33;;
60060;SDS011;45933;51.336;12.612;2024-03-07T06:55:22;38.47;;;24.30;;
60060;SDS011;45933;51.336;12.612;2024-03-07T06:57:48;36.20;;;23.93;;
60060;SDS011;45933;51.336;12.612;2024-03-07T07:00:14;38.93;;;24.37;;
60060;SDS011;45933;51.336;12.612;2024-03-07T07:02:47;37.50;;;23.23;;
60060;SDS011;45933;51.336;12.612;2024-03-07T07:05:13;36.63;;;23.77;;
60060;SDS011;45933;51.336;12.612;2024-03-07T07:07:41;36.07;;;23.00;;
60060;SDS011;45933;51.336;12.612;2024-03-07T07:10:06;35.10;;;22.37;;
60060;SDS011;45933;51.336;12.612;2024-03-07T07:12:34;35.40;;;21.77;;
60060;SDS011;45933;51.336;12.612;2024-03-07T07:15:00;36.33;;;21.80;;
60060;SDS011;45933;51.336;12.612;2024-03-07T07:17:26;34.63;;;21.53;;
60060;SDS011;45933;51.336;12.612;2024-03-07T07:19:53;34.20;;;21.77;;
60060;SDS011;45933;51.336;12.612;2024-03-07T07:22:20;33.47;;;20.43;;
60060;SDS011;45933;51.336;12.612;2024-03-07T07:24:46;31.23;;;19.27;;
60060;SDS011;45933;51.336;12.612;2024-03-07T07:27:11;33.40;;;21.40;;
60060;SDS011;45933;51.336;12.612;2024-03-07T07:29:36;32.13;;;19.70;;
60060;SDS011;45933;51.336;12.612;2024-03-07T07:32:01;33.37;;;19.97;;
60060;SDS011;45933;51.336;12.612;2024-03-07T07:34:27;30.10;;;19.60;;
60060;SDS011;45933;51.336;12.612;2024-03-07T07:36:52;31.90;;;19.83;;
60060;SDS011;45933;51.336;12.612;2024-03-07T07:39:18;28.43;;;18.53;;
60060;SDS011;45933;51.336;12.612;2024-03-07T07:41:43;29.90;;;20.10;;
60060;SDS011;45933;51.336;12.612;2024-03-07T07:44:08;28.60;;;18.27;;
60060;SDS011;45933;51.336;12.612;2024-03-07T07:46:34;35.23;;;18.63;;
60060;SDS011;45933;51.336;12.612;2024-03-07T07:49:00;29.00;;;18.30;;
60060;SDS011;45933;51.336;12.612;2024-03-07T07:51:27;27.63;;;17.87;;
60060;SDS011;45933;51.336;12.612;2024-03-07T07:53:52;30.47;;;17.87;;
60060;SDS011;45933;51.336;12.612;2024-03-07T07:56:19;24.63;;;16.93;;
60060;SDS011;45933;51.336;12.612;2024-03-07T07:58:44;28.80;;;17.23;;
60060;SDS011;45933;51.336;12.612;2024-03-07T08:01:10;26.50;;;15.97;;
60060;SDS011;45933;51.336;12.612;2024-03-07T08:03:35;26.03;;;16.03;;
60060;SDS011;45933;51.336;12.612;2024-03-07T08:06:01;26.77;;;17.23;;
60060;SDS011;45933;51.336;12.612;2024-03-07T08:08:27;23.57;;;16.00;;
60060;SDS011;45933;51.336;12.612;2024-03-07T08:10:52;28.27;;;17.17;;
60060;SDS011;45933;51.336;12.612;2024-03-07T08:13:18;27.33;;;17.70;;
60060;SDS011;45933;51.336;12.612;2024-03-07T08:15:43;30.37;;;17.70;;
60060;SDS011;45933;51.336;12.612;2024-03-07T08:18:09;27.80;;;16.80;;
60060;SDS011;45933;51.336;12.612;2024-03-07T08:20:34;26.83;;;16.90;;
60060;SDS011;45933;51.336;12.612;2024-03-07T08:23:00;27.27;;;16.20;;
60060;SDS011;45933;51.336;12.612;2024-03-07T08:25:26;26.53;;;17.50;;
60060;SDS011;45933;51.336;12.612;2024-03-07T08:27:56;23.80;;;17.10;;
60060;SDS011;45933;51.336;12.612;2024-03-07T08:30:22;26.87;;;15.40;;
60060;SDS011;45933;51.336;12.612;2024-03-07T08:32:50;24.40;;;14.27;;
60060;SDS011;45933;51.336;12.612;2024-03-07T08:35:19;21.02;;;14.30;;
60060;SDS011;45933;51.336;12.612;2024-03-07T08:37:45;21.70;;;14.20;;
60060;SDS011;45933;51.336;12.612;2024-03-07T08:40:17;19.25;;;13.35;;
60060;SDS011;45933;51.336;12.612;2024-03-07T08:42:46;18.35;;;12.75;;
60060;SDS011;45933;51.336;12.612;2024-03-07T08:45:12;19.25;;;13.32;;
60060;SDS011;45933;51.336;12.612;2024-03-07T08:47:42;17.75;;;12.15;;
60060;SDS011;45933;51.336;12.612;2024-03-07T08:50:08;19.42;;;13.15;;
60060;SDS011;45933;51.336;12.612;2024-03-07T08:52:33;17.08;;;12.63;;
60060;SDS011;45933;51.336;12.612;2024-03-07T08:55:03;16.95;;;11.50;;
60060;SDS011;45933;51.336;12.612;2024-03-07T08:57:29;18.30;;;11.63;;
60060;SDS011;45933;51.336;12.612;2024-03-07T08:59:55;17.42;;;11.73;;
60060;SDS011;45933;51.336;12.612;2024-03-07T09:02:20;15.15;;;10.27;;
60060;SDS011;45933;51.336;12.612;2024-03-07T09:04:45;18.30;;;11.00;;
60060;SDS011;45933;51.336;12.612;2024-03-07T09:07:11;12.25;;;9.60;;
60060;SDS011;45933;51.336;12.612;2024-03-07T09:09:38;15.48;;;10.88;;
60060;SDS011;45933;51.336;12.612;2024-03-07T09:12:03;13.05;;;9.85;;
60060;SDS011;45933;51.336;12.612;2024-03-07T09:14:30;14.60;;;9.98;;
60060;SDS011;45933;51.336;12.612;2024-03-07T09:16:55;13.75;;;10.18;;
60060;SDS011;45933;51.336;12.612;2024-03-07T09:19:21;16.83;;;9.85;;
60060;SDS011;45933;51.336;12.612;2024-03-07T09:21:50;12.73;;;9.07;;
60060;SDS011;45933;51.336;12.612;2024-03-07T09:24:16;12.18;;;9.65;;
60060;SDS011;45933;51.336;12.612;2024-03-07T09:26:41;14.60;;;10.05;;
60060;SDS011;45933;51.336;12.612;2024-03-07T09:29:06;12.18;;;9.38;;
60060;SDS011;45933;51.336;12.612;2024-03-07T09:31:32;12.07;;;9.32;;
60060;SDS011;45933;51.336;12.612;2024-03-07T09:33:58;13.35;;;9.18;;
60060;SDS011;45933;51.336;12.612;2024-03-07T09:36:24;12.25;;;8.85;;
60060;SDS011;45933;51.336;12.612;2024-03-07T09:38:49;13.13;;;8.70;;
60060;SDS011;45933;51.336;12.612;2024-03-07T09:41:15;14.98;;;10.02;;
60060;SDS011;45933;51.336;12.612;2024-03-07T09:43:43;16.20;;;10.18;;
60060;SDS011;45933;51.336;12.612;2024-03-07T09:46:11;18.40;;;10.50;;
60060;SDS011;45933;51.336;12.612;2024-03-07T09:48:37;13.93;;;10.60;;
60060;SDS011;45933;51.336;12.612;2024-03-07T09:51:03;20.45;;;10.75;;
60060;SDS011;45933;51.336;12.612;2024-03-07T09:53:30;15.15;;;10.90;;
60060;SDS011;45933;51.336;12.612;2024-03-07T09:55:55;15.52;;;11.02;;
60060;SDS011;45933;51.336;12.612;2024-03-07T09:58:22;16.48;;;11.48;;
60060;SDS011;45933;51.336;12.612;2024-03-07T10:00:50;17.50;;;12.23;;
60060;SDS011;45933;51.336;12.612;2024-03-07T10:03:19;16.48;;;11.80;;
60060;SDS011;45933;51.336;12.612;2024-03-07T10:05:45;16.75;;;11.93;;
60060;SDS011;45933;51.336;12.612;2024-03-07T10:08:11;15.73;;;11.50;;
60060;SDS011;45933;51.336;12.612;2024-03-07T10:10:38;16.55;;;11.95;;
60060;SDS011;45933;51.336;12.612;2024-03-07T10:13:03;17.75;;;11.55;;
60060;SDS011;45933;51.336;12.612;2024-03-07T10:15:32;18.67;;;12.05;;
60060;SDS011;45933;51.336;12.612;2024-03-07T10:17:58;17.60;;;11.48;;
60060;SDS011;45933;51.336;12.612;2024-03-07T10:20:23;17.88;;;10.30;;
60060;SDS011;45933;51.336;12.612;2024-03-07T10:22:49;14.55;;;11.07;;
60060;SDS011;45933;51.336;12.612;2024-03-07T10:25:16;16.77;;;11.30;;
60060;SDS011;45933;51.336;12.612;2024-03-07T10:27:43;18.02;;;11.35;;
60060;SDS011;45933;51.336;12.612;2024-03-07T10:30:09;15.63;;;11.00;;
60060;SDS011;45933;51.336;12.612;2024-03-07T10:32:35;14.32;;;10.43;;
60060;SDS011;45933;51.336;12.612;2024-03-07T10:35:03;17.60;;;11.75;;
60060;SDS011;45933;51.336;12.612;2024-03-07T10:37:29;14.45;;;10.82;;
60060;SDS011;45933;51.336;12.612;2024-03-07T10:39:55;16.33;;;11.40;;
60060;SDS011;45933;51.336;12.612;2024-03-07T10:42:20;17.45;;;12.15;;
60060;SDS011;45933;51.336;12.612;2024-03-07T10:44:49;16.63;;;11.15;;
60060;SDS011;45933;51.336;12.612;2024-03-07T10:47:21;16.52;;;11.45;;
60060;SDS011;45933;51.336;12.612;2024-03-07T10:58:50;15.83;;;10.87;;
60060;SDS011;45933;51.336;12.612;2024-03-07T11:01:18;18.00;;;11.43;;
60060;SDS011;45933;51.336;12.612;2024-03-07T11:03:45;21.60;;;10.77;;
60060;SDS011;45933;51.336;12.612;2024-03-07T11:06:11;19.13;;;12.83;;
60060;SDS011;45933;51.336;12.612;2024-03-07T11:08:38;19.17;;;12.07;;
60060;SDS011;45933;51.336;12.612;2024-03-07T11:11:04;17.83;;;11.73;;
60060;SDS011;45933;51.336;12.612;2024-03-07T11:13:31;21.77;;;12.83;;
60060;SDS011;45933;51.336;12.612;2024-03-07T11:15:58;17.07;;;12.03;;
60060;SDS011;45933;51.336;12.612;2024-03-07T11:18:25;16.30;;;12.27;;
60060;SDS011;45933;51.336;12.612;2024-03-07T11:20:51;16.07;;;11.50;;
60060;SDS011;45933;51.336;12.612;2024-03-07T11:23:27;18.10;;;11.73;;
60060;SDS011;45933;51.336;12.612;2024-03-07T11:26:01;18.77;;;12.27;;
60060;SDS011;45933;51.336;12.612;2024-03-07T11:28:32;20.87;;;13.10;;
60060;SDS011;45933;51.336;12.612;2024-03-07T11:31:14;18.00;;;12.47;;
60060;SDS011;45933;51.336;12.612;2024-03-07T11:33:40;17.93;;;12.27;;
60060;SDS011;45933;51.336;12.612;2024-03-07T11:36:09;20.07;;;13.03;;
60060;SDS011;45933;51.336;12.612;2024-03-07T11:38:45;19.27;;;12.00;;
60060;SDS011;45933;51.336;12.612;2024-03-07T11:41:13;19.97;;;11.80;;
60060;SDS011;45933;51.336;12.612;2024-03-07T11:43:39;19.23;;;11.73;;
60060;SDS011;45933;51.336;12.612;2024-03-07T11:46:07;22.17;;;11.73;;
60060;SDS011;45933;51.336;12.612;2024-03-07T11:48:38;15.80;;;11.60;;
60060;SDS011;45933;51.336;12.612;2024-03-07T11:51:06;19.13;;;12.07;;
60060;SDS011;45933;51.336;12.612;2024-03-07T11:53:33;21.83;;;12.67;;
60060;SDS011;45933;51.336;12.612;2024-03-07T11:56:00;22.13;;;13.20;;
60060;SDS011;45933;51.336;12.612;2024-03-07T11:58:34;21.07;;;12.90;;
60060;SDS011;45933;51.336;12.612;2024-03-07T12:01:05;20.70;;;13.53;;
60060;SDS011;45933;51.336;12.612;2024-03-07T12:03:30;18.00;;;12.67;;
60060;SDS011;45933;51.336;12.612;2024-03-07T12:05:59;18.37;;;13.43;;
60060;SDS011;45933;51.336;12.612;2024-03-07T12:08:24;18.93;;;14.00;;
60060;SDS011;45933;51.336;12.612;2024-03-07T12:10:51;19.53;;;13.60;;
60060;SDS011;45933;51.336;12.612;2024-03-07T12:13:20;18.50;;;13.03;;
60060;SDS011;45933;51.336;12.612;2024-03-07T12:15:46;17.60;;;12.63;;
60060;SDS011;45933;51.336;12.612;2024-03-07T12:18:12;20.70;;;13.17;;
60060;SDS011;45933;51.336;12.612;2024-03-07T12:20:43;21.60;;;13.43;;
60060;SDS011;45933;51.336;12.612;2024-03-07T12:23:16;19.23;;;12.70;;
60060;SDS011;45933;51.336;12.612;2024-03-07T12:25:44;21.07;;;12.97;;
60060;SDS011;45933;51.336;12.612;2024-03-07T12:28:11;19.60;;;12.23;;
60060;SDS011;45933;51.336;12.612;2024-03-07T12:30:58;17.33;;;12.70;;
60060;SDS011;45933;51.336;12.612;2024-03-07T12:33:23;20.67;;;12.60;;
60060;SDS011;45933;51.336;12.612;2024-03-07T12:35:50;16.55;;;11.75;;
60060;SDS011;45933;51.336;12.612;2024-03-07T12:38:20;18.48;;;12.57;;
60060;SDS011;45933;51.336;12.612;2024-03-07T12:41:01;19.08;;;12.55;;
60060;SDS011;45933;51.336;12.612;2024-03-07T12:43:31;16.55;;;12.18;;
60060;SDS011;45933;51.336;12.612;2024-03-07T12:45:57;18.25;;;13.70;;
60060;SDS011;45933;51.336;12.612;2024-03-07T12:48:23;17.45;;;13.55;;
60060;SDS011;45933;51.336;12.612;2024-03-07T12:50:49;17.73;;;13.32;;
60060;SDS011;45933;51.336;12.612;2024-03-07T12:53:18;18.25;;;12.68;;
60060;SDS011;45933;51.336;12.612;2024-03-07T12:55:48;18.65;;;13.23;;
60060;SDS011;45933;51.336;12.612;2024-03-07T12:58:13;16.20;;;12.35;;
60060;SDS011;45933;51.336;12.612;2024-03-07T13:00:40;16.10;;;12.15;;
60060;SDS011;45933;51.336;12.612;2024-03-07T13:03:06;17.10;;;12.25;;
60060;SDS011;45933;51.336;12.612;2024-03-07T13:05:33;15.63;;;12.63;;
60060;SDS011;45933;51.336;12.612;2024-03-07T13:07:58;17.05;;;12.70;;
60060;SDS011;45933;51.336;12.612;2024-03-07T13:10:23;17.33;;;13.32;;
60060;SDS011;45933;51.336;12.612;2024-03-07T13:12:49;16.23;;;12.32;;
60060;SDS011;45933;51.336;12.612;2024-03-07T13:15:16;19.90;;;13.13;;
60060;SDS011;45933;51.336;12.612;2024-03-07T13:17:42;17.90;;;13.60;;
60060;SDS011;45933;51.336;12.612;2024-03-07T13:20:10;19.60;;;12.75;;
60060;SDS011;45933;51.336;12.612;2024-03-07T13:22:38;16.65;;;12.77;;
60060;SDS011;45933;51.336;12.612;2024-03-07T13:25:12;17.85;;;12.85;;
60060;SDS011;45933;51.336;12.612;2024-03-07T13:27:41;18.42;;;13.23;;
60060;SDS011;45933;51.336;12.612;2024-03-07T13:30:10;17.50;;;12.80;;
60060;SDS011;45933;51.336;12.612;2024-03-07T13:32:40;17.63;;;12.30;;
60060;SDS011;45933;51.336;12.612;2024-03-07T13:35:06;17.05;;;12.35;;
60060;SDS011;45933;51.336;12.612;2024-03-07T13:37:36;21.98;;;13.77;;
60060;SDS011;45933;51.336;12.612;2024-03-07T13:40:02;22.50;;;14.10;;
60060;SDS011;45933;51.336;12.612;2024-03-07T13:42:47;20.63;;;13.75;;
60060;SDS011;45933;51.336;12.612;2024-03-07T13:45:12;16.30;;;13.50;;
60060;SDS011;45933;51.336;12.612;2024-03-07T13:47:38;18.33;;;13.32;;
60060;SDS011;45933;51.336;12.612;2024-03-07T13:50:07;17.63;;;13.02;;
60060;SDS011;45933;51.336;12.612;2024-03-07T13:52:36;16.85;;;13.63;;
60060;SDS011;45933;51.336;12.612;2024-03-07T13:55:08;16.67;;;13.05;;
60060;SDS011;45933;51.336;12.612;2024-03-07T13:57:40;17.70;;;12.25;;
60060;SDS011;45933;51.336;12.612;2024-03-07T14:02:56;17.45;;;13.55;;
60060;SDS011;45933;51.336;12.612;2024-03-07T14:08:36;17.42;;;13.15;;
60060;SDS011;45933;51.336;12.612;2024-03-07T14:11:37;18.15;;;12.70;;
60060;SDS011;45933;51.336;12.612;2024-03-07T14:14:26;14.10;;;11.50;;
60060;SDS011;45933;51.336;12.612;2024-03-07T14:22:54;16.13;;;12.55;;
60060;SDS011;45933;51.336;12.612;2024-03-07T14:28:42;16.45;;;11.98;;
60060;SDS011;45933;51.336;12.612;2024-03-07T14:31:17;16.10;;;12.32;;